Time;durP1;ratioP1;P1;durP2;ratioP2;P2;SDS_P1;SDS_P2;PMS_P1;PMS_P2;Temp;Humidity;BMP_temperature;BMP_pressure;BME280_temperature;BME280_humidity;BME280_pressure;Samples;Min_cycle;Max_cycle;Signal;HPM_P1;HPM_P2
2021/06/16 00:01:42;;;;;;;6.90;4.32;;;22.30;88.50;;;;;;5043526;28;20029;-78
2021/06/16 00:04:08;;;;;;;5.88;4.75;;;22.20;88.40;;;;;;5057253;28;20028;-80
2021/06/16 00:06:34;;;;;;;7.60;5.10;;;23.30;89.50;;;;;;5033981;28;20243;-81
2021/06/16 00:09:02;;;;;;;6.28;4.60;;;22.10;88.90;;;;;;5038339;28;20343;-79
2021/06/16 00:11:28;;;;;;;6.53;4.55;;;22.10;88.40;;;;;;5038981;28;20025;-79
2021/06/16 00:13:54;;;;;;;8.60;4.57;;;22.10;88.20;;;;;;5038811;28;20029;-79
2021/06/16 00:16:19;;;;;;;9.57;4.90;;;22.10;88.80;;;;;;5037685;28;20074;-79
2021/06/16 00:18:45;;;;;;;6.88;4.40;;;22.20;89.00;;;;;;5035721;28;20848;-77
2021/06/16 00:21:12;;;;;;;7.40;4.90;;;22.00;88.80;;;;;;5035641;28;20349;-79
2021/06/16 00:23:38;;;;;;;7.72;4.45;;;22.10;88.50;;;;;;5039216;28;20033;-79
2021/06/16 00:26:04;;;;;;;6.35;4.60;;;22.10;89.00;;;;;;5035961;28;20484;-77
2021/06/16 00:28:29;;;;;;;6.00;4.78;;;22.10;89.00;;;;;;5037768;28;20075;-79
2021/06/16 00:30:55;;;;;;;7.57;5.03;;;22.00;89.30;;;;;;5033103;28;20029;-82
2021/06/16 00:33:21;;;;;;;8.20;4.50;;;22.00;89.30;;;;;;5033628;28;20021;-79
2021/06/16 00:35:46;;;;;;;6.30;4.82;;;23.50;90.20;;;;;;5049930;28;20095;-80
2021/06/16 00:38:12;;;;;;;7.07;4.53;;;21.80;89.90;;;;;;5035937;28;20546;-78
2021/06/16 00:40:38;;;;;;;6.03;4.13;;;21.90;90.10;;;;;;5040356;28;20483;-78
2021/06/16 00:43:03;;;;;;;6.93;5.03;;;21.90;90.10;;;;;;5043992;28;20424;-78
2021/06/16 00:45:30;;;;;;;8.00;5.07;;;22.10;90.50;;;;;;5033130;28;20040;-77
2021/06/16 00:47:56;;;;;;;10.30;5.18;;;21.80;90.50;;;;;;5032036;28;20369;-80
2021/06/16 00:50:28;;;;;;;6.85;4.60;;;21.70;90.70;;;;;;5030924;28;20052;-78
2021/06/16 00:52:53;;;;;;;7.50;5.05;;;21.70;90.70;;;;;;5018614;28;20179;-78
2021/06/16 00:55:19;;;;;;;7.03;4.65;;;21.70;90.90;;;;;;5042170;28;20026;-79
2021/06/16 00:57:45;;;;;;;8.15;5.00;;;;;;;;;;5038205;28;20086;-78
2021/06/16 01:00:18;;;;;;;7.55;4.70;;;21.70;91.00;;;;;;5053477;28;20036;-78
2021/06/16 01:02:52;;;;;;;7.55;4.28;;;21.60;91.20;;;;;;5043913;28;20144;-78
2021/06/16 01:05:19;;;;;;;5.50;4.30;;;21.70;91.40;;;;;;5013535;28;22510;-78
2021/06/16 01:07:50;;;;;;;7.15;4.80;;;21.60;91.30;;;;;;5037480;28;20614;-79
2021/06/16 01:10:23;;;;;;;6.53;4.68;;;22.90;91.80;;;;;;5038801;28;20554;-79
2021/06/16 01:13:16;;;;;;;9.63;5.00;;;21.60;91.40;;;;;;5035976;28;20033;-79
2021/06/16 01:16:07;;;;;;;7.00;4.60;;;21.60;91.60;;;;;;5042691;28;20498;-78
2021/06/16 01:18:53;;;;;;;9.50;5.32;;;21.60;91.70;;;;;;5030111;28;20420;-78
2021/06/16 01:21:22;;;;;;;6.80;4.75;;;21.50;91.70;;;;;;5033271;28;20079;-78
2021/06/16 01:24:04;;;;;;;8.63;5.35;;;21.50;91.60;;;;;;5037115;28;20499;-78
2021/06/16 01:26:36;;;;;;;8.65;5.30;;;21.40;91.90;;;;;;5035842;28;20032;-78
2021/06/16 01:29:25;;;;;;;6.95;5.47;;;21.50;92.00;;;;;;5034490;28;20036;-78
2021/06/16 01:31:51;;;;;;;8.73;5.45;;;21.40;92.10;;;;;;5028615;28;20480;-78
2021/06/16 01:34:20;;;;;;;6.90;5.05;;;21.40;92.10;;;;;;5033944;28;20065;-77
2021/06/16 01:36:48;;;;;;;7.28;5.18;;;21.30;92.50;;;;;;5033608;28;20514;-77
2021/06/16 01:39:17;;;;;;;8.93;5.00;;;21.20;92.60;;;;;;5034839;28;20049;-77
2021/06/16 01:41:44;;;;;;;10.60;5.47;;;21.20;92.80;;;;;;5036321;28;20068;-79
2021/06/16 01:44:12;;;;;;;8.35;5.03;;;21.20;92.90;;;;;;5029855;28;20507;-78
2021/06/16 01:46:38;;;;;;;7.88;5.25;;;21.10;93.10;;;;;;5037187;28;20032;-79
2021/06/16 01:49:05;;;;;;;7.53;5.53;;;21.10;93.40;;;;;;5039123;28;20558;-77
2021/06/16 01:51:31;;;;;;;7.63;5.70;;;21.10;93.40;;;;;;5035584;28;22606;-79
2021/06/16 01:54:01;;;;;;;7.72;5.72;;;21.00;93.50;;;;;;5021230;28;20040;-76
2021/06/16 01:56:28;;;;;;;7.65;5.68;;;21.00;93.70;;;;;;5048025;28;20028;-77
2021/06/16 01:58:55;;;;;;;9.05;5.32;;;20.90;94.00;;;;;;5033029;28;20034;-78
2021/06/16 02:01:23;;;;;;;9.55;6.20;;;20.90;94.00;;;;;;5014003;28;20047;-78
2021/06/16 02:03:50;;;;;;;7.15;5.30;;;20.90;94.00;;;;;;5037730;28;20056;-79
2021/06/16 02:06:18;;;;;;;7.45;5.28;;;20.90;94.20;;;;;;5033759;28;20488;-78
2021/06/16 02:08:48;;;;;;;7.18;5.40;;;20.90;94.30;;;;;;5037363;28;20075;-80
2021/06/16 02:11:19;;;;;;;7.35;5.50;;;20.80;94.40;;;;;;5035557;28;20025;-78
2021/06/16 02:13:53;;;;;;;6.07;5.03;;;20.70;94.50;;;;;;5042580;28;20071;-78
2021/06/16 02:16:33;;;;;;;7.88;5.63;;;20.80;94.70;;;;;;5035418;28;20091;-78
2021/06/16 02:19:01;;;;;;;;;;;20.70;94.80;;;;;;5021920;28;20029;-78
2021/06/16 02:21:27;;;;;;;6.93;5.20;;;20.70;94.90;;;;;;5035229;28;19909;-78
2021/06/16 02:23:53;;;;;;;8.38;5.40;;;20.60;94.80;;;;;;5032692;28;20061;-78
2021/06/16 02:26:21;;;;;;;8.18;5.30;;;20.60;95.10;;;;;;5033630;28;20056;-77
2021/06/16 02:28:46;;;;;;;8.45;5.43;;;20.60;95.20;;;;;;5043542;28;20175;-79
2021/06/16 02:31:13;;;;;;;8.70;5.75;;;21.00;95.30;;;;;;5036282;28;20075;-77
2021/06/16 02:33:38;;;;;;;8.25;5.60;;;20.30;95.10;;;;;;5031744;28;20033;-80
2021/06/16 02:36:06;;;;;;;8.07;5.75;;;20.50;95.40;;;;;;5036533;28;20654;-78
2021/06/16 02:38:34;;;;;;;7.78;6.07;;;20.50;95.40;;;;;;5024367;28;20201;-77
2021/06/16 02:41:04;;;;;;;7.22;5.32;;;20.50;95.40;;;;;;5057875;28;20029;-77
2021/06/16 02:43:33;;;;;;;8.27;5.97;;;20.60;95.50;;;;;;5038071;28;20057;-78
2021/06/16 02:46:00;;;;;;;9.00;5.63;;;21.60;95.80;;;;;;5041944;28;20571;-79
2021/06/16 02:48:25;;;;;;;8.05;6.00;;;20.40;95.60;;;;;;5037024;28;20129;-80
2021/06/16 02:50:54;;;;;;;9.68;5.78;;;20.40;95.80;;;;;;5041588;28;20466;-79
2021/06/16 02:53:23;;;;;;;9.95;6.72;;;20.40;95.60;;;;;;5034819;28;20500;-79
2021/06/16 02:55:52;;;;;;;11.18;6.07;;;20.40;95.80;;;;;;5037005;28;20115;-79
2021/06/16 02:58:18;;;;;;;10.25;6.32;;;20.40;95.80;;;;;;5038218;28;20034;-81
2021/06/16 03:00:46;;;;;;;8.48;5.70;;;20.30;95.90;;;;;;5029941;28;20029;-78
2021/06/16 03:03:14;;;;;;;7.50;5.82;;;20.30;95.70;;;;;;5042073;28;20037;-77
2021/06/16 03:05:40;;;;;;;8.35;6.07;;;20.30;95.90;;;;;;5032305;28;20519;-78
2021/06/16 03:08:07;;;;;;;11.95;6.25;;;20.30;95.90;;;;;;5037071;28;20037;-76
2021/06/16 03:10:35;;;;;;;7.72;5.75;;;20.60;96.10;;;;;;5030886;28;20387;-81
2021/06/16 03:13:01;;;;;;;8.77;6.18;;;20.30;95.80;;;;;;5036062;28;20029;-78
2021/06/16 03:15:28;;;;;;;9.90;5.80;;;20.30;96.00;;;;;;5036503;28;20156;-78
2021/06/16 03:17:57;;;;;;;9.05;6.05;;;20.20;96.10;;;;;;5019282;28;20064;-77
2021/06/16 03:20:26;;;;;;;7.93;6.03;;;20.20;96.30;;;;;;5041050;28;20032;-78
2021/06/16 03:22:54;;;;;;;11.13;6.45;;;20.20;96.30;;;;;;5013102;28;20449;-77
2021/06/16 03:25:20;;;;;;;7.90;6.25;;;20.10;96.40;;;;;;5030591;28;20024;-78
2021/06/16 03:27:47;;;;;;;11.15;6.30;;;20.20;96.60;;;;;;5033955;28;20032;-76
2021/06/16 03:30:14;;;;;;;8.88;6.60;;;20.20;96.60;;;;;;5050449;28;20029;-78
2021/06/16 03:32:41;;;;;;;8.77;6.95;;;20.10;96.60;;;;;;5042428;28;20034;-81
2021/06/16 03:35:10;;;;;;;8.63;6.25;;;;;;;;;;5039163;28;20037;-77
2021/06/16 03:37:36;;;;;;;8.35;6.00;;;20.00;96.70;;;;;;5031691;28;20025;-78
2021/06/16 03:40:04;;;;;;;9.00;6.68;;;20.00;96.90;;;;;;5030044;28;20029;-79
2021/06/16 03:42:33;;;;;;;9.30;6.53;;;20.00;96.90;;;;;;5034203;28;20083;-78
2021/06/16 03:45:05;;;;;;;8.52;5.95;;;20.00;97.00;;;;;;5033616;28;20040;-78
2021/06/16 03:47:35;;;;;;;9.80;6.50;;;20.00;97.10;;;;;;5035109;28;20526;-79
2021/06/16 03:50:03;;;;;;;10.55;6.05;;;20.00;97.20;;;;;;5034311;28;20112;-78
2021/06/16 03:52:30;;;;;;;8.10;5.88;;;20.00;97.00;;;;;;5058139;28;20052;-80
2021/06/16 03:54:56;;;;;;;9.82;6.53;;;20.00;97.20;;;;;;5058014;28;20028;-78
2021/06/16 03:57:22;;;;;;;8.07;5.88;;;20.00;97.20;;;;;;5042819;28;20033;-78
2021/06/16 03:59:51;;;;;;;8.75;6.38;;;19.90;97.30;;;;;;5016654;28;20037;-78
2021/06/16 04:02:20;;;;;;;7.65;6.47;;;20.00;97.20;;;;;;5046581;28;20028;-78
2021/06/16 04:04:46;;;;;;;8.97;6.70;;;19.90;97.20;;;;;;5036730;28;20407;-76
2021/06/16 04:07:18;;;;;;;10.30;6.40;;;20.00;97.40;;;;;;5033707;28;20029;-78
2021/06/16 04:09:53;;;;;;;8.02;6.10;;;20.00;97.10;;;;;;5041824;28;20337;-78
2021/06/16 04:12:19;;;;;;;8.48;6.18;;;20.10;97.10;;;;;;5036177;28;20106;-77
2021/06/16 04:14:46;;;;;;;10.20;6.40;;;20.00;97.20;;;;;;5034057;28;20021;-79
2021/06/16 04:17:15;;;;;;;10.52;6.95;;;20.00;97.40;;;;;;5037616;28;20416;-78
2021/06/16 04:19:40;;;;;;;10.50;6.50;;;20.00;97.30;;;;;;5060174;28;20029;-79
2021/06/16 04:22:06;;;;;;;8.43;6.45;;;20.00;97.20;;;;;;5038647;28;20056;-77
2021/06/16 04:24:32;;;;;;;11.80;6.82;;;20.00;97.40;;;;;;5036576;28;20076;-77
2021/06/16 04:26:57;;;;;;;9.50;6.47;;;20.10;97.40;;;;;;5036408;28;20064;-78
2021/06/16 04:29:23;;;;;;;9.38;7.05;;;20.00;97.50;;;;;;5033277;28;20563;-78
2021/06/16 04:31:50;;;;;;;8.18;6.57;;;20.10;97.30;;;;;;5031226;28;20083;-79
2021/06/16 04:34:15;;;;;;;9.63;6.20;;;20.00;97.20;;;;;;5038165;28;20025;-78
2021/06/16 04:36:41;;;;;;;9.68;6.20;;;20.80;97.70;;;;;;5033851;28;20044;-81
2021/06/16 04:39:08;;;;;;;9.02;6.13;;;20.10;97.50;;;;;;5036132;28;20021;-78
2021/06/16 04:41:34;;;;;;;9.23;6.65;;;20.80;97.60;;;;;;5035619;28;20061;-78
2021/06/16 04:44:00;;;;;;;10.25;6.70;;;;;;;;;;5035543;28;20066;-78
2021/06/16 04:46:28;;;;;;;10.82;7.00;;;20.20;97.20;;;;;;5030010;28;20499;-77
2021/06/16 04:48:54;;;;;;;10.70;6.20;;;20.30;97.30;;;;;;5029955;28;20060;-78
2021/06/16 04:51:20;;;;;;;9.43;6.40;;;20.40;97.10;;;;;;5038311;28;20044;-80
2021/06/16 04:53:45;;;;;;;11.60;7.10;;;20.40;96.80;;;;;;5038179;28;20032;-80
2021/06/16 04:56:11;;;;;;;11.60;7.20;;;;;;;;;;5037802;28;20032;-78
2021/06/16 04:58:37;;;;;;;10.88;6.93;;;20.50;96.60;;;;;;5037154;28;20072;-78
2021/06/16 05:01:05;;;;;;;9.30;6.68;;;20.60;96.60;;;;;;5026029;28;20435;-77
2021/06/16 05:03:31;;;;;;;9.27;6.68;;;20.60;96.60;;;;;;5025150;28;23009;-79
2021/06/16 05:05:56;;;;;;;11.52;7.00;;;21.20;96.80;;;;;;5043138;28;20048;-80
2021/06/16 05:08:22;;;;;;;12.80;7.03;;;20.70;96.50;;;;;;5035703;28;20483;-77
2021/06/16 05:10:47;;;;;;;10.15;6.80;;;20.90;96.30;;;;;;5043477;28;20044;-79
2021/06/16 05:13:19;;;;;;;8.93;6.75;;;20.90;95.80;;;;;;5028355;28;20507;-82
2021/06/16 05:15:45;;;;;;;8.73;5.97;;;21.00;95.70;;;;;;5031094;28;20025;-78
2021/06/16 05:18:10;;;;;;;8.73;6.47;;;21.00;95.90;;;;;;5028362;28;20028;-78
2021/06/16 05:20:36;;;;;;;10.45;7.22;;;21.20;95.60;;;;;;5033508;28;20037;-78
2021/06/16 05:23:04;;;;;;;7.57;5.85;;;21.80;94.90;;;;;;5038924;28;20499;-77
2021/06/16 05:25:29;;;;;;;10.25;6.25;;;22.60;93.50;;;;;;5031116;28;20549;-77
2021/06/16 05:27:55;;;;;;;8.15;6.47;;;23.40;91.30;;;;;;5045144;28;20041;-78
2021/06/16 05:30:21;;;;;;;8.00;5.60;;;24.90;90.80;;;;;;5033560;28;20030;-78
2021/06/16 05:32:47;;;;;;;7.53;5.50;;;24.70;88.90;;;;;;5030127;28;20037;-77
2021/06/16 05:35:13;;;;;;;8.63;5.47;;;25.20;85.70;;;;;;5027646;28;20048;-76
2021/06/16 05:37:38;;;;;;;6.53;5.07;;;26.00;82.90;;;;;;5031806;28;20018;-77
2021/06/16 05:40:06;;;;;;;7.63;5.53;;;26.00;83.30;;;;;;5046190;28;20044;-77
2021/06/16 05:42:31;;;;;;;7.47;5.40;;;26.10;82.00;;;;;;5037524;28;20037;-78
2021/06/16 05:44:57;;;;;;;6.95;5.25;;;26.00;81.80;;;;;;5032457;28;20132;-77
2021/06/16 05:47:23;;;;;;;7.70;5.55;;;26.10;81.00;;;;;;5035561;28;20030;-76
2021/06/16 05:49:49;;;;;;;8.00;4.93;;;26.20;80.40;;;;;;5028733;28;20052;-77
2021/06/16 05:52:15;;;;;;;8.65;5.90;;;27.10;78.00;;;;;;5030463;28;20063;-77
2021/06/16 05:54:40;;;;;;;7.20;5.40;;;27.20;78.40;;;;;;5026138;28;20320;-77
2021/06/16 05:57:06;;;;;;;8.40;5.20;;;27.50;76.70;;;;;;5028902;28;20053;-77
2021/06/16 05:59:33;;;;;;;5.45;4.55;;;27.70;75.90;;;;;;5026439;28;20442;-77
2021/06/16 06:02:00;;;;;;;7.45;5.53;;;28.50;73.50;;;;;;5029576;28;20492;-77
2021/06/16 06:04:26;;;;;;;6.85;5.63;;;28.60;72.40;;;;;;5043687;28;20033;-77
2021/06/16 06:06:51;;;;;;;6.50;5.18;;;28.90;71.20;;;;;;5033564;28;20029;-77
2021/06/16 06:09:17;;;;;;;7.68;5.40;;;28.10;72.80;;;;;;5034087;28;20407;-77
2021/06/16 06:11:42;;;;;;;6.63;4.65;;;28.10;72.50;;;;;;5034674;28;20078;-78
2021/06/16 06:14:08;;;;;;;7.40;5.20;;;27.60;73.20;;;;;;5036003;28;20033;-78
2021/06/16 06:16:36;;;;;;;10.00;5.53;;;27.30;73.60;;;;;;5034883;28;20092;-77
2021/06/16 06:19:03;;;;;;;7.38;5.28;;;27.30;75.00;;;;;;5037915;28;20083;-77
2021/06/16 06:21:32;;;;;;;10.57;6.13;;;27.00;75.00;;;;;;5034351;28;20026;-77
2021/06/16 06:24:02;;;;;;;6.70;4.80;;;26.60;76.10;;;;;;5051500;28;22207;-77
2021/06/16 06:26:28;;;;;;;6.85;4.95;;;26.30;77.00;;;;;;5019091;28;20159;-78
2021/06/16 06:28:54;;;;;;;5.85;4.65;;;26.50;77.40;;;;;;5041705;28;20120;-76
2021/06/16 06:31:20;;;;;;;7.40;4.65;;;26.70;75.90;;;;;;5025814;28;20032;-77
2021/06/16 06:33:45;;;;;;;6.25;4.88;;;26.80;75.80;;;;;;5043555;28;20021;-77
2021/06/16 06:36:13;;;;;;;8.27;5.38;;;27.20;75.10;;;;;;5036926;28;20038;-78
2021/06/16 06:38:39;;;;;;;8.30;4.68;;;27.60;73.70;;;;;;5034181;28;20065;-77
2021/06/16 06:41:04;;;;;;;18.45;12.02;;;27.40;74.10;;;;;;5041045;28;20056;-77
2021/06/16 06:43:30;;;;;;;9.50;5.20;;;27.40;73.70;;;;;;5033153;28;20528;-76
2021/06/16 06:45:55;;;;;;;6.68;4.65;;;27.30;74.10;;;;;;5038796;28;20090;-76
2021/06/16 06:48:21;;;;;;;11.05;4.57;;;27.10;75.10;;;;;;5032440;28;20030;-77
2021/06/16 06:50:47;;;;;;;6.38;4.82;;;26.90;75.90;;;;;;5040886;28;20022;-77
2021/06/16 06:53:14;;;;;;;6.55;4.97;;;26.60;76.30;;;;;;5056221;28;20028;-76
2021/06/16 06:55:41;;;;;;;7.47;5.20;;;26.40;77.30;;;;;;5050619;28;20030;-76
2021/06/16 06:58:07;;;;;;;7.78;5.13;;;26.50;76.90;;;;;;5032692;28;20484;-79
2021/06/16 07:00:33;;;;;;;6.45;5.18;;;26.50;77.30;;;;;;5034748;28;20036;-77
2021/06/16 07:02:58;;;;;;;7.22;5.50;;;26.40;77.40;;;;;;5039024;28;20025;-78
2021/06/16 07:05:25;;;;;;;6.63;5.57;;;26.20;77.90;;;;;;5036125;28;20492;-79
2021/06/16 07:07:51;;;;;;;11.18;4.75;;;26.10;78.20;;;;;;5034720;28;20030;-78
2021/06/16 07:10:17;;;;;;;8.07;4.82;;;25.60;78.50;;;;;;5040155;28;20040;-79
2021/06/16 07:12:42;;;;;;;7.10;5.20;;;25.50;79.70;;;;;;5033735;28;20022;-79
2021/06/16 07:15:09;;;;;;;6.28;5.28;;;25.40;80.50;;;;;;5035899;28;20514;-79
2021/06/16 07:17:35;;;;;;;10.07;7.45;;;25.30;80.10;;;;;;5031913;28;20034;-77
2021/06/16 07:20:03;;;;;;;6.28;4.72;;;25.40;79.90;;;;;;5031181;28;20078;-79
2021/06/16 07:22:29;;;;;;;6.80;4.57;;;25.30;79.70;;;;;;5036368;28;20038;-79
2021/06/16 07:24:54;;;;;;;7.35;5.13;;;25.30;80.00;;;;;;5038326;28;20021;-79
2021/06/16 07:27:20;;;;;;;7.93;4.85;;;25.40;80.00;;;;;;5032928;28;20040;-78
2021/06/16 07:29:45;;;;;;;6.93;4.70;;;25.50;79.60;;;;;;5040730;28;20044;-77
2021/06/16 07:32:11;;;;;;;6.30;4.65;;;25.50;78.80;;;;;;5041789;28;20427;-77
2021/06/16 07:34:37;;;;;;;7.57;4.80;;;25.50;79.30;;;;;;5038532;28;20488;-79
2021/06/16 07:37:03;;;;;;;9.07;4.65;;;25.40;79.30;;;;;;5042772;28;20487;-81
2021/06/16 07:39:29;;;;;;;7.43;4.63;;;25.50;79.10;;;;;;5037924;28;20090;-78
2021/06/16 07:41:54;;;;;;;8.10;4.68;;;25.70;79.10;;;;;;5024570;28;20116;-76
2021/06/16 07:44:20;;;;;;;9.95;4.80;;;25.50;79.10;;;;;;5040464;28;20021;-78
2021/06/16 07:46:46;;;;;;;8.27;4.80;;;25.60;79.50;;;;;;5055724;28;20395;-78
2021/06/16 07:49:12;;;;;;;10.38;6.72;;;25.70;78.90;;;;;;5037300;28;20039;-76
2021/06/16 07:51:37;;;;;;;6.13;4.65;;;25.80;79.00;;;;;;5058513;28;20021;-79
2021/06/16 07:54:03;;;;;;;8.43;4.55;;;25.90;75.60;;;;;;5036204;28;20021;-79
2021/06/16 07:56:29;;;;;;;4.95;4.18;;;25.90;76.30;;;;;;5035804;28;20025;-79
2021/06/16 07:58:55;;;;;;;6.47;4.60;;;26.00;74.00;;;;;;5041171;28;20040;-79
2021/06/16 08:01:21;;;;;;;5.45;4.00;;;25.90;74.00;;;;;;5041235;28;20826;-78
2021/06/16 08:03:46;;;;;;;6.03;3.90;;;25.90;74.60;;;;;;5038668;28;21544;-80
2021/06/16 08:06:12;;;;;;;6.00;4.63;;;26.30;74.60;;;;;;5035205;28;20032;-80
2021/06/16 08:08:38;;;;;;;7.70;4.55;;;26.20;74.10;;;;;;5039974;28;20034;-79
2021/06/16 08:11:04;;;;;;;7.40;4.85;;;26.30;73.90;;;;;;5043537;28;20036;-79
2021/06/16 08:13:31;;;;;;;6.20;4.20;;;26.30;73.70;;;;;;5039635;28;20024;-79
2021/06/16 08:15:57;;;;;;;7.38;4.90;;;26.20;73.70;;;;;;5043813;28;20037;-79
2021/06/16 08:18:23;;;;;;;10.57;5.55;;;;;;;;;;5039729;28;20021;-79
2021/06/16 08:20:50;;;;;;;6.32;4.50;;;25.90;74.00;;;;;;5035515;28;20038;-80
2021/06/16 08:23:16;;;;;;;5.78;4.03;;;26.10;74.80;;;;;;5037743;28;20032;-79
2021/06/16 08:25:41;;;;;;;8.10;3.90;;;26.50;72.70;;;;;;5034208;28;20025;-79
2021/06/16 08:28:07;;;;;;;6.45;4.38;;;26.40;73.00;;;;;;5032477;28;20036;-78
2021/06/16 08:30:34;;;;;;;6.50;4.35;;;26.50;72.50;;;;;;5039098;28;20108;-77
2021/06/16 08:32:59;;;;;;;7.80;4.25;;;26.70;72.90;;;;;;5036074;28;20435;-80
2021/06/16 08:35:25;;;;;;;7.68;4.55;;;26.60;72.60;;;;;;5035703;28;20171;-79
2021/06/16 08:37:53;;;;;;;4.70;3.75;;;26.60;72.30;;;;;;5051135;28;20029;-79
2021/06/16 08:40:19;;;;;;;6.97;4.55;;;26.80;73.00;;;;;;5032875;28;20025;-79
2021/06/16 08:42:46;;;;;;;6.32;4.28;;;26.60;72.20;;;;;;5031511;28;20025;-78
2021/06/16 08:45:13;;;;;;;7.50;4.25;;;27.10;71.40;;;;;;5034723;28;20037;-79
2021/06/16 08:47:41;;;;;;;6.28;4.30;;;27.20;71.10;;;;;;5040523;28;20677;-79
2021/06/16 08:50:09;;;;;;;8.57;4.10;;;27.40;70.10;;;;;;5038640;28;20050;-78
2021/06/16 08:52:35;;;;;;;7.13;3.83;;;27.60;69.90;;;;;;5042956;28;20025;-79
2021/06/16 08:55:12;;;;;;;6.07;3.80;;;27.60;68.20;;;;;;5035877;28;20036;-80
2021/06/16 08:57:39;;;;;;;5.40;3.20;;;27.60;68.10;;;;;;5033870;28;20075;-80
2021/06/16 09:00:07;;;;;;;3.92;3.17;;;27.70;67.00;;;;;;5039489;28;20817;-78
2021/06/16 09:02:33;;;;;;;6.75;3.50;;;27.80;66.50;;;;;;5043928;28;20113;-78
2021/06/16 09:04:59;;;;;;;6.38;3.33;;;27.70;65.40;;;;;;5040054;28;20523;-78
2021/06/16 09:07:29;;;;;;;5.85;3.63;;;27.90;63.90;;;;;;5037014;28;20049;-78
2021/06/16 09:10:06;;;;;;;4.28;3.30;;;28.30;64.90;;;;;;5039185;28;20025;-78
2021/06/16 09:12:33;;;;;;;6.38;3.38;;;28.40;64.80;;;;;;5034979;28;20029;-78
2021/06/16 09:14:59;;;;;;;5.65;3.42;;;28.60;64.70;;;;;;5036761;28;20485;-77
2021/06/16 09:17:26;;;;;;;5.93;3.38;;;28.70;64.50;;;;;;5036922;28;20550;-78
2021/06/16 09:19:57;;;;;;;6.80;3.50;;;28.90;62.90;;;;;;5036323;28;20089;-78
2021/06/16 09:22:35;;;;;;;4.80;3.80;;;29.10;63.00;;;;;;5040438;28;20033;-78
2021/06/16 09:25:06;;;;;;;6.28;4.22;;;29.30;63.70;;;;;;5034823;28;20435;-77
2021/06/16 09:27:48;;;;;;;4.75;3.50;;;29.30;63.50;;;;;;5033865;28;20028;-79
2021/06/16 09:30:21;;;;;;;5.57;3.35;;;29.50;62.40;;;;;;5034807;28;20293;-77
2021/06/16 09:32:48;;;;;;;4.78;3.78;;;29.50;62.70;;;;;;5040421;28;20021;-77
2021/06/16 09:35:27;;;;;;;5.15;3.63;;;29.60;61.00;;;;;;5038246;28;20021;-78
2021/06/16 09:37:55;;;;;;;4.85;3.20;;;29.70;60.10;;;;;;5036271;28;20384;-77
2021/06/16 09:40:39;;;;;;;4.28;2.95;;;29.50;60.50;;;;;;5033687;28;20029;-78
2021/06/16 09:43:16;;;;;;;4.80;3.25;;;29.40;60.00;;;;;;5033417;28;20029;-77
2021/06/16 09:45:52;;;;;;;4.00;3.30;;;29.50;59.40;;;;;;5042470;28;20618;-76
2021/06/16 09:48:21;;;;;;;6.35;3.90;;;29.60;59.60;;;;;;5043063;28;20041;-76
2021/06/16 09:50:50;;;;;;;;;;;29.60;59.60;;;;;;5052763;28;20480;-77
2021/06/16 09:53:16;;;;;;;5.30;3.25;;;29.70;59.50;;;;;;5042615;28;19924;-78
2021/06/16 09:55:43;;;;;;;5.47;3.00;;;29.70;58.80;;;;;;5041010;28;20032;-76
2021/06/16 09:58:11;;;;;;;3.55;2.75;;;29.80;58.50;;;;;;5041930;28;20040;-78
2021/06/16 10:00:37;;;;;;;5.45;2.60;;;30.10;55.70;;;;;;5035303;28;20392;-77
2021/06/16 10:03:11;;;;;;;3.95;2.42;;;30.20;55.40;;;;;;5053319;28;20056;-77
2021/06/16 10:06:06;;;;;;;5.32;2.95;;;30.30;56.00;;;;;;5042615;28;20057;-76
2021/06/16 10:08:43;;;;;;;3.60;2.70;;;30.40;53.40;;;;;;5044408;28;20484;-76
2021/06/16 10:11:13;;;;;;;5.50;3.10;;;30.40;53.90;;;;;;5033946;28;20024;-76
2021/06/16 10:13:40;;;;;;;4.10;2.92;;;30.50;53.40;;;;;;5051536;28;20087;-77
2021/06/16 10:16:06;;;;;;;3.30;2.70;;;30.50;52.80;;;;;;5036532;28;20037;-76
2021/06/16 10:18:34;;;;;;;4.60;2.83;;;30.70;52.90;;;;;;5035512;28;20036;-77
2021/06/16 10:21:00;;;;;;;4.63;2.70;;;30.80;53.20;;;;;;5052226;28;20040;-77
2021/06/16 10:23:26;;;;;;;3.90;2.55;;;31.10;52.50;;;;;;5051506;28;20472;-77
2021/06/16 10:26:00;;;;;;;4.38;3.13;;;31.10;53.10;;;;;;5042102;28;20411;-78
2021/06/16 10:28:32;;;;;;;7.13;2.50;;;31.20;52.30;;;;;;5041306;28;20028;-77
2021/06/16 10:30:58;;;;;;;3.45;2.75;;;31.10;51.70;;;;;;5036918;28;20033;-77
2021/06/16 10:33:37;;;;;;;4.38;2.83;;;30.90;52.40;;;;;;5039303;28;20043;-78
2021/06/16 10:36:12;;;;;;;4.43;2.80;;;30.80;52.50;;;;;;5033554;28;20146;-79
2021/06/16 10:38:42;;;;;;;5.22;2.90;;;30.90;53.50;;;;;;5038300;28;20096;-76
2021/06/16 10:41:08;;;;;;;8.93;2.90;;;31.00;52.80;;;;;;5033492;28;20030;-77
2021/06/16 10:43:36;;;;;;;4.30;2.80;;;31.20;50.60;;;;;;5037162;28;20330;-77
2021/06/16 10:46:03;;;;;;;4.45;2.80;;;31.30;50.80;;;;;;5040241;28;20029;-77
2021/06/16 10:48:51;;;;;;;5.13;2.95;;;31.20;51.70;;;;;;5043083;28;20391;-77
2021/06/16 10:51:29;;;;;;;3.05;2.47;;;31.10;50.50;;;;;;5036801;28;20021;-78
2021/06/16 10:54:13;;;;;;;4.28;2.67;;;31.20;51.00;;;;;;5038078;28;20060;-79
2021/06/16 10:56:42;;;;;;;3.63;2.42;;;31.30;50.10;;;;;;5048441;28;20112;-79
2021/06/16 10:59:07;;;;;;;3.85;2.60;;;31.60;50.90;;;;;;5044748;28;20037;-79
2021/06/16 11:01:51;;;;;;;5.05;2.60;;;31.50;50.40;;;;;;5040150;28;20608;-78
2021/06/16 11:04:27;;;;;;;3.70;2.50;;;31.60;48.10;;;;;;5037760;28;20168;-79
2021/06/16 11:06:53;;;;;;;3.03;2.10;;;31.70;47.70;;;;;;5054085;28;20064;-79
2021/06/16 11:09:52;;;;;;;5.22;2.53;;;31.60;48.50;;;;;;5044896;28;20034;-78
2021/06/16 11:12:43;;;;;;;3.25;2.47;;;31.70;46.80;;;;;;5042742;28;20032;-78
2021/06/16 11:15:09;;;;;;;2.70;2.00;;;31.70;47.20;;;;;;5042647;28;20499;-78
2021/06/16 11:17:35;;;;;;;3.65;2.50;;;31.90;47.40;;;;;;5043236;28;20037;-80
2021/06/16 11:20:10;;;;;;;3.17;2.10;;;31.90;47.00;;;;;;5039012;28;20423;-76
2021/06/16 11:22:51;;;;;;;3.42;2.40;;;31.90;45.60;;;;;;5040519;28;20162;-77
2021/06/16 11:25:27;;;;;;;3.75;2.45;;;32.00;45.40;;;;;;5042233;28;20662;-78
2021/06/16 11:28:11;;;;;;;3.97;2.00;;;31.60;46.00;;;;;;5038893;28;20132;-78
2021/06/16 11:31:07;;;;;;;6.20;2.53;;;31.70;45.70;;;;;;5042802;28;20040;-76
2021/06/16 11:33:44;;;;;;;2.25;1.90;;;31.90;45.70;;;;;;5029278;28;20095;-79
2021/06/16 11:36:15;;;;;;;4.10;2.58;;;31.90;45.70;;;;;;5027933;28;20042;-78
2021/06/16 11:38:54;;;;;;;3.97;2.03;;;32.10;46.60;;;;;;5040245;28;20039;-77
2021/06/16 11:41:27;;;;;;;3.55;2.50;;;32.30;46.80;;;;;;5043281;28;20104;-79
2021/06/16 11:44:07;;;;;;;3.72;2.67;;;32.40;47.10;;;;;;5040338;28;20061;-77
2021/06/16 11:46:39;;;;;;;3.75;2.67;;;32.30;46.70;;;;;;5040625;28;20044;-78
2021/06/16 11:49:10;;;;;;;3.10;2.42;;;32.40;47.40;;;;;;5038306;28;20865;-78
2021/06/16 11:51:37;;;;;;;4.30;2.47;;;32.40;46.50;;;;;;5034514;28;20116;-76
2021/06/16 11:54:24;;;;;;;4.05;2.22;;;32.50;46.10;;;;;;5039884;28;20022;-77
2021/06/16 11:56:56;;;;;;;3.58;2.53;;;32.50;46.00;;;;;;5040312;28;20052;-78
2021/06/16 11:59:40;;;;;;;3.53;2.55;;;32.60;46.20;;;;;;5046076;28;20021;-79
2021/06/16 12:02:07;;;;;;;6.40;3.03;;;32.50;45.80;;;;;;5036803;28;20026;-77
2021/06/16 12:04:55;;;;;;;3.28;2.42;;;32.50;46.40;;;;;;5044474;28;20508;-77
2021/06/16 12:07:33;;;;;;;4.45;2.50;;;32.40;46.40;;;;;;5039127;28;20037;-77
2021/06/16 12:10:12;;;;;;;3.70;2.25;;;32.40;46.80;;;;;;5038571;28;20029;-77
2021/06/16 12:12:51;;;;;;;3.60;2.38;;;32.40;46.30;;;;;;5042315;28;20028;-77
2021/06/16 12:15:23;;;;;;;3.47;2.45;;;32.50;46.00;;;;;;5048780;28;20032;-79
2021/06/16 12:18:02;;;;;;;3.70;2.30;;;32.50;46.20;;;;;;5044003;28;20036;-80
2021/06/16 12:20:30;;;;;;;4.82;2.55;;;32.70;45.10;;;;;;5039442;28;20033;-77
2021/06/16 12:22:57;;;;;;;2.63;2.00;;;32.60;46.00;;;;;;5039268;28;20064;-78
2021/06/16 12:25:34;;;;;;;2.72;2.10;;;32.50;45.40;;;;;;5040577;28;20026;-79
2021/06/16 12:28:00;;;;;;;2.65;1.88;;;32.60;46.30;;;;;;5041037;28;20047;-76
2021/06/16 12:30:30;;;;;;;3.83;2.00;;;32.80;43.10;;;;;;5041255;28;20025;-78
2021/06/16 12:33:19;;;;;;;2.50;1.80;;;32.70;43.30;;;;;;5039100;28;20017;-80
2021/06/16 12:35:58;;;;;;;4.63;2.00;;;32.60;43.50;;;;;;5033665;28;20491;-77
2021/06/16 12:38:47;;;;;;;2.92;1.88;;;32.70;43.80;;;;;;5033887;28;20025;-78
2021/06/16 12:41:34;;;;;;;3.90;2.10;;;32.70;43.70;;;;;;5033501;28;20026;-77
2021/06/16 12:44:19;;;;;;;3.55;2.03;;;32.70;43.80;;;;;;5041441;28;20029;-78
2021/06/16 12:46:59;;;;;;;2.97;2.05;;;32.80;43.40;;;;;;5034965;28;20025;-78
2021/06/16 12:49:30;;;;;;;3.00;2.05;;;32.90;44.00;;;;;;5033665;28;20036;-77
2021/06/16 12:52:00;;;;;;;4.10;2.42;;;32.90;43.90;;;;;;5036221;28;20519;-77
2021/06/16 12:54:31;;;;;;;4.20;2.70;;;32.90;44.60;;;;;;5020486;28;20709;-76
2021/06/16 12:57:06;;;;;;;3.20;2.25;;;33.00;44.80;;;;;;5054919;28;20059;-77
2021/06/16 12:59:37;;;;;;;3.65;2.30;;;33.00;44.40;;;;;;5039215;28;20063;-78